Vronskiy — C4AY2 — position and weather

sailwx.info

Track history (hours):
 
Tides and Currents Weather Stations Pressure Air Temp Water Temp Dewpoint Dewpoint Depression Visibility Wind Speed Wind Dir Waves Ship Positions

Vronskiy

Last reported at 2016-Aug-29 22:33 UTC. Time now 2016-Aug-30 10:56 UTC.
Position N 36°46' W 002°27'.

Length 131 m; draft 5.1 m.

Type: Passenger vessel. MMSI: 210030000.

Date/timePositionNaut miles runAvg speedWind from/ knotsBaromVisibWave heightAir tempDewpointWater temp
2016-Aug-29 22:33N 36°46' W 002°27'4 3.5
2016-Aug-29 21:28N 36°50' W 002°28'0 0.0
2016-Aug-29 20:31N 36°50' W 002°28'0 0.0
2016-Aug-29 19:31N 36°50' W 002°28'0 0.0
2016-Aug-29 18:31N 36°50' W 002°28'0 0.0
2016-Aug-29 17:31N 36°50' W 002°28'0 0.0
2016-Aug-29 16:31N 36°50' W 002°28'9 9.6
2016-Aug-29 15:33N 36°41' W 002°29'1817.5
2016-Aug-29 14:33N 36°24' W 002°34'1716.7
2016-Aug-29 13:33N 36°08' W 002°39'2316.5
2016-Aug-29 12:10N 35°45' W 002°46'65 6.7
2016-Aug-29 02:33N 36°48' W 002°28'2 1.9
2016-Aug-29 01:33N 36°50' W 002°28'2 2.4
2016-Aug-29 00:33N 36°48' W 002°27'3715.3
2016-Aug-28 22:08N 36°14' W 002°08'1616.8
2016-Aug-28 21:11N 36°08' W 001°49'1416.7
2016-Aug-28 20:21N 36°03' W 001°34'4915.4
2016-Aug-28 17:10N 35°45' W 000°37'2 3.4
2016-Aug-28 16:29N 35°43' W 000°39'10 2.0
2016-Aug-28 11:33N 35°50' W 000°47'10114.5
2016-Aug-28 04:34N 36°50' W 002°28'0 0.0
2016-Aug-28 03:31N 36°50' W 002°28'0 0.0
2016-Aug-28 02:31N 36°50' W 002°28'0 0.0
2016-Aug-28 01:31N 36°50' W 002°28'0 0.0
2016-Aug-28 00:31N 36°50' W 002°28'4 4.5
2016-Aug-27 23:32N 36°46' W 002°26'6715.2
2016-Aug-27 19:08N 35°41' W 002°07'65 4.4
2016-Aug-27 04:11N 36°44' W 002°26'610.0
2016-Aug-27 03:33N 36°50' W 002°28'0 0.0
2016-Aug-27 02:32N 36°50' W 002°28'0 0.0
2016-Aug-27 01:32N 36°50' W 002°28'0 0.0
2016-Aug-27 00:32N 36°50' W 002°28'0 0.4
2016-Aug-26 23:34N 36°50' W 002°28'  
2016-Aug-22 22:23N 36°50' W 002°28'0 0.0
2016-Aug-22 21:31N 36°50' W 002°28'0 0.0
2016-Aug-22 20:31N 36°50' W 002°28'0 0.0
2016-Aug-22 18:31N 36°50' W 002°28'4 4.3
2016-Aug-22 17:33N 36°46' W 002°28'7 0.5
2016-Aug-22 03:09N 36°39' W 002°31'1016.7
2016-Aug-22 02:33N 36°49' W 002°28'1 1.1
2016-Aug-22 01:31N 36°50' W 002°28'0 0.0
2016-Aug-22 00:31N 36°50' W 002°28'0 0.0
2016-Aug-21 23:31N 36°50' W 002°28'5 0.2
2016-Aug-21 02:33N 36°45' W 002°27'5 5.2
2016-Aug-21 01:33N 36°50' W 002°28'0 0.0
2016-Aug-21 00:33N 36°50' W 002°28'0 0.0
2016-Aug-20 23:30N 36°50' W 002°28'0 0.1
2016-Aug-20 22:33N 36°50' W 002°28'  
Track history (hours):
 
Tides and Currents Weather Stations Pressure Air Temp Water Temp Dewpoint Dewpoint Depression Visibility Wind Speed Wind Dir Waves Ship Positions

Vronskiy

Last reported at 2016-Aug-29 22:33 UTC. Time now 2016-Aug-30 10:56 UTC.
Position N 36°46' W 002°27'.

Length 131 m; draft 5.1 m.

Type: Passenger vessel. MMSI: 210030000.

Date/timePositionNaut miles runAvg speedWind from/ knotsBaromVisibWave heightAir tempDewpointWater temp
2016-Aug-29 22:33N 36°46' W 002°27'4 3.5
2016-Aug-29 21:28N 36°50' W 002°28'0 0.0
2016-Aug-29 20:31N 36°50' W 002°28'0 0.0
2016-Aug-29 19:31N 36°50' W 002°28'0 0.0
2016-Aug-29 18:31N 36°50' W 002°28'0 0.0
2016-Aug-29 17:31N 36°50' W 002°28'0 0.0
2016-Aug-29 16:31N 36°50' W 002°28'9 9.6
2016-Aug-29 15:33N 36°41' W 002°29'1817.5
2016-Aug-29 14:33N 36°24' W 002°34'1716.7
2016-Aug-29 13:33N 36°08' W 002°39'2316.5
2016-Aug-29 12:10N 35°45' W 002°46'65 6.7
2016-Aug-29 02:33N 36°48' W 002°28'2 1.9
2016-Aug-29 01:33N 36°50' W 002°28'2 2.4
2016-Aug-29 00:33N 36°48' W 002°27'3715.3
2016-Aug-28 22:08N 36°14' W 002°08'1616.8
2016-Aug-28 21:11N 36°08' W 001°49'1416.7
2016-Aug-28 20:21N 36°03' W 001°34'4915.4
2016-Aug-28 17:10N 35°45' W 000°37'2 3.4
2016-Aug-28 16:29N 35°43' W 000°39'10 2.0
2016-Aug-28 11:33N 35°50' W 000°47'10114.5
2016-Aug-28 04:34N 36°50' W 002°28'0 0.0
2016-Aug-28 03:31N 36°50' W 002°28'0 0.0
2016-Aug-28 02:31N 36°50' W 002°28'0 0.0
2016-Aug-28 01:31N 36°50' W 002°28'0 0.0
2016-Aug-28 00:31N 36°50' W 002°28'4 4.5
2016-Aug-27 23:32N 36°46' W 002°26'6715.2
2016-Aug-27 19:08N 35°41' W 002°07'65 4.4
2016-Aug-27 04:11N 36°44' W 002°26'610.0
2016-Aug-27 03:33N 36°50' W 002°28'0 0.0
2016-Aug-27 02:32N 36°50' W 002°28'0 0.0
2016-Aug-27 01:32N 36°50' W 002°28'0 0.0
2016-Aug-27 00:32N 36°50' W 002°28'0 0.4
2016-Aug-26 23:34N 36°50' W 002°28'  
2016-Aug-22 22:23N 36°50' W 002°28'0 0.0
2016-Aug-22 21:31N 36°50' W 002°28'0 0.0
2016-Aug-22 20:31N 36°50' W 002°28'0 0.0
2016-Aug-22 18:31N 36°50' W 002°28'4 4.3
2016-Aug-22 17:33N 36°46' W 002°28'7 0.5
2016-Aug-22 03:09N 36°39' W 002°31'1016.7
2016-Aug-22 02:33N 36°49' W 002°28'1 1.1
2016-Aug-22 01:31N 36°50' W 002°28'0 0.0
2016-Aug-22 00:31N 36°50' W 002°28'0 0.0
2016-Aug-21 23:31N 36°50' W 002°28'5 0.2
2016-Aug-21 02:33N 36°45' W 002°27'5 5.2
2016-Aug-21 01:33N 36°50' W 002°28'0 0.0
2016-Aug-21 00:33N 36°50' W 002°28'0 0.0
2016-Aug-20 23:30N 36°50' W 002°28'0 0.1
2016-Aug-20 22:33N 36°50' W 002°28'  

Dump ship's entire track history